createdAt,value
2019-04-04T00:01:48.105Z,13.70
2019-04-04T00:04:21.845Z,13.30
2019-04-04T00:06:51.522Z,13.50
2019-04-04T00:09:22.300Z,13.40
2019-04-04T00:11:53.701Z,13.20
2019-04-04T00:14:25.799Z,13.40
2019-04-04T00:16:55.622Z,13.50
2019-04-04T00:19:25.414Z,13.60
2019-04-04T00:21:55.858Z,13.40
2019-04-04T00:24:25.708Z,13.30
2019-04-04T00:26:57.158Z,13.50
2019-04-04T00:29:28.459Z,13.30
2019-04-04T00:31:58.262Z,13.20
2019-04-04T00:34:28.586Z,12.80
2019-04-04T00:36:59.535Z,12.50
2019-04-04T00:39:29.120Z,12.90
2019-04-04T00:42:00.508Z,13.30
2019-04-04T00:44:30.169Z,13.50
2019-04-04T00:47:01.844Z,13.50
2019-04-04T00:49:35.313Z,13.00
2019-04-04T00:52:03.688Z,13.00
2019-04-04T00:54:34.333Z,13.30
2019-04-04T00:57:04.220Z,13.50
2019-04-04T00:59:34.453Z,13.40
2019-04-04T01:02:04.025Z,13.40
2019-04-04T01:04:33.709Z,13.40
2019-04-04T01:07:05.085Z,13.60
2019-04-04T01:09:34.662Z,12.90
2019-04-04T01:12:04.213Z,12.10
2019-04-04T01:14:34.588Z,12.10
2019-04-04T01:17:06.623Z,12.30
2019-04-04T01:19:38.209Z,12.50
2019-04-04T01:22:09.104Z,12.70
2019-04-04T01:24:40.493Z,12.90
2019-04-04T01:27:10.272Z,12.60
2019-04-04T01:29:40.853Z,12.80
2019-04-04T01:32:12.969Z,12.90
2019-04-04T01:34:42.724Z,12.80
2019-04-04T01:37:12.629Z,13.00
2019-04-04T01:39:42.196Z,12.90
2019-04-04T01:42:11.939Z,13.00
2019-04-04T01:44:42.197Z,12.60
2019-04-04T01:47:17.128Z,12.50
2019-04-04T01:49:47.076Z,12.80
2019-04-04T01:52:16.721Z,12.90
2019-04-04T01:54:47.639Z,12.80
2019-04-04T01:57:17.999Z,13.00
2019-04-04T01:59:48.230Z,13.00
2019-04-04T02:02:18.630Z,13.20
2019-04-04T02:04:50.980Z,13.00
2019-04-04T02:07:20.606Z,12.90
2019-04-04T02:09:50.388Z,13.20
2019-04-04T02:12:20.059Z,13.10
2019-04-04T02:14:51.562Z,13.10
2019-04-04T02:17:22.293Z,13.20
2019-04-04T02:19:55.561Z,13.00
2019-04-04T02:22:24.363Z,13.00
2019-04-04T02:24:54.806Z,13.20
2019-04-04T02:27:24.963Z,13.40
2019-04-04T02:29:55.639Z,13.50
2019-04-04T02:32:26.837Z,13.50
2019-04-04T02:34:57.535Z,13.50
2019-04-04T02:37:27.560Z,13.40
2019-04-04T02:40:00.153Z,13.50
2019-04-04T02:42:32.105Z,13.20
2019-04-04T02:45:05.287Z,13.40
2019-04-04T02:47:33.987Z,13.40
2019-04-04T02:50:06.223Z,13.40
2019-04-04T02:52:35.957Z,13.40
2019-04-04T02:55:07.013Z,13.30
2019-04-04T02:57:40.996Z,13.30
2019-04-04T03:00:10.175Z,13.30
2019-04-04T03:02:39.842Z,13.40
2019-04-04T03:05:09.702Z,13.40
2019-04-04T03:07:39.445Z,13.30
2019-04-04T03:10:15.188Z,13.40
2019-04-04T03:12:44.249Z,13.40
2019-04-04T03:15:14.983Z,13.40
2019-04-04T03:17:46.675Z,13.40
2019-04-04T03:20:18.102Z,13.30
2019-04-04T03:22:49.050Z,13.10
2019-04-04T03:25:20.059Z,13.10
2019-04-04T03:27:49.812Z,13.00
2019-04-04T03:30:19.434Z,13.10
2019-04-04T03:32:53.836Z,13.20
2019-04-04T03:35:27.987Z,13.30
2019-04-04T03:37:53.565Z,13.30
2019-04-04T03:40:25.648Z,13.40
2019-04-04T03:42:55.957Z,13.40
2019-04-04T03:45:28.326Z,13.40
2019-04-04T03:47:59.149Z,13.30
2019-04-04T03:50:30.315Z,13.30
2019-04-04T03:53:00.252Z,13.40
2019-04-04T03:55:29.989Z,13.40
2019-04-04T03:57:59.569Z,13.40
2019-04-04T04:00:30.896Z,13.40
2019-04-04T04:03:00.580Z,13.40
2019-04-04T04:05:35.592Z,13.40
2019-04-04T04:08:05.222Z,13.30
2019-04-04T04:10:34.905Z,13.30
2019-04-04T04:13:04.641Z,13.30
2019-04-04T04:15:35.488Z,13.30
2019-04-04T04:18:05.185Z,13.30
2019-04-04T04:20:37.883Z,13.30
2019-04-04T04:23:09.052Z,13.20
2019-04-04T04:25:38.685Z,13.20
2019-04-04T04:28:11.391Z,13.10
2019-04-04T04:30:41.103Z,13.10
2019-04-04T04:33:10.683Z,13.20
2019-04-04T04:35:42.059Z,13.20
2019-04-04T04:38:12.141Z,13.20
2019-04-04T04:40:41.766Z,13.20
2019-04-04T04:43:15.426Z,13.20
2019-04-04T04:45:45.293Z,13.30
2019-04-04T04:48:14.917Z,13.20
2019-04-04T04:50:48.201Z,13.20
2019-04-04T04:53:19.721Z,13.20
2019-04-04T04:55:50.725Z,13.10
2019-04-04T04:58:21.537Z,13.20
2019-04-04T05:00:51.100Z,13.20
2019-04-04T05:03:22.154Z,13.20
2019-04-04T05:05:52.160Z,13.20
2019-04-04T05:08:22.413Z,13.20
2019-04-04T05:10:51.980Z,13.20
2019-04-04T05:13:24.568Z,13.20
2019-04-04T05:15:52.909Z,13.20
2019-04-04T05:18:24.263Z,13.20
2019-04-04T05:20:53.816Z,13.20
2019-04-04T05:23:23.663Z,13.20
2019-04-04T05:25:54.327Z,13.20
2019-04-04T05:28:26.447Z,13.20
2019-04-04T05:30:57.136Z,13.20
2019-04-04T05:33:27.264Z,13.20
2019-04-04T05:35:57.686Z,13.20
2019-04-04T05:38:27.729Z,13.20
2019-04-04T05:40:58.432Z,13.20
2019-04-04T05:43:28.039Z,13.20
2019-04-04T05:45:58.086Z,12.90
2019-04-04T05:48:29.188Z,12.90
2019-04-04T05:51:00.724Z,13.00
2019-04-04T05:53:35.021Z,13.10
2019-04-04T05:56:06.546Z,13.20
2019-04-04T05:58:36.686Z,13.10
2019-04-04T06:01:08.759Z,13.10
2019-04-04T06:03:38.564Z,13.10
2019-04-04T06:06:10.500Z,13.10
2019-04-04T06:08:43.100Z,12.90
2019-04-04T06:11:10.780Z,12.80
2019-04-04T06:13:43.217Z,13.10
2019-04-04T06:16:12.769Z,13.20
2019-04-04T06:18:43.871Z,13.20
2019-04-04T06:21:18.554Z,13.30
2019-04-04T06:23:47.380Z,13.30
2019-04-04T06:26:17.032Z,13.20
2019-04-04T06:28:46.604Z,13.30
2019-04-04T06:31:16.649Z,13.20
2019-04-04T06:33:46.240Z,13.00
2019-04-04T06:36:18.279Z,13.00
2019-04-04T06:38:49.801Z,13.00
2019-04-04T06:41:21.256Z,13.10
2019-04-04T06:43:51.207Z,13.10
2019-04-04T06:46:22.866Z,13.00
2019-04-04T06:48:52.779Z,13.00
2019-04-04T06:51:23.616Z,13.10
2019-04-04T06:53:54.781Z,13.10
2019-04-04T06:56:26.265Z,13.30
2019-04-04T06:58:57.032Z,13.30
2019-04-04T07:01:27.869Z,13.10
2019-04-04T07:04:01.132Z,12.80
2019-04-04T07:06:30.700Z,12.90
2019-04-04T07:09:00.272Z,12.70
2019-04-04T07:11:30.916Z,12.90
2019-04-04T07:14:02.568Z,13.20
2019-04-04T07:16:36.871Z,13.20
2019-04-04T07:19:07.931Z,13.20
2019-04-04T07:21:38.227Z,13.20
2019-04-04T07:24:08.992Z,13.20
2019-04-04T07:26:39.267Z,13.20
2019-04-04T07:29:10.096Z,13.30
2019-04-04T07:31:44.021Z,13.30
2019-04-04T07:34:14.228Z,13.30
2019-04-04T07:36:49.148Z,13.40
2019-04-04T07:39:19.837Z,13.50
2019-04-04T07:41:49.712Z,13.50
2019-04-04T07:44:22.996Z,13.60
2019-04-04T07:46:51.584Z,13.80
2019-04-04T07:49:23.223Z,13.80
2019-04-04T07:51:52.748Z,13.90
2019-04-04T07:54:23.481Z,13.70
2019-04-04T07:56:53.147Z,13.60
2019-04-04T07:59:24.768Z,13.60
2019-04-04T08:01:57.244Z,13.70
2019-04-04T08:04:26.953Z,13.50
2019-04-04T08:06:57.504Z,13.50
2019-04-04T08:09:27.088Z,13.20
2019-04-04T08:11:59.574Z,12.70
2019-04-04T08:14:29.900Z,12.80
2019-04-04T08:16:59.605Z,13.00
2019-04-04T08:19:30.161Z,12.90
2019-04-04T08:21:59.714Z,12.80
2019-04-04T08:24:29.549Z,12.50
2019-04-04T08:26:59.088Z,13.00
2019-04-04T08:29:30.158Z,13.30
2019-04-04T08:31:59.731Z,13.20
2019-04-04T08:34:29.506Z,13.30
2019-04-04T08:36:59.036Z,13.40
2019-04-04T08:39:32.587Z,13.50
2019-04-04T08:42:04.073Z,13.30
2019-04-04T08:44:36.341Z,13.30
2019-04-04T08:47:05.992Z,13.10
2019-04-04T08:49:35.669Z,13.50
2019-04-04T08:52:16.117Z,13.70
2019-04-04T08:54:37.882Z,13.80
2019-04-04T08:57:09.211Z,13.70
2019-04-04T08:59:41.957Z,13.00
2019-04-04T09:02:16.354Z,13.40
2019-04-04T09:04:46.144Z,12.70
2019-04-04T09:07:15.715Z,12.80
2019-04-04T09:09:49.005Z,13.00
2019-04-04T09:12:18.668Z,12.90
2019-04-04T09:14:49.904Z,13.50
2019-04-04T09:17:19.536Z,12.30
2019-04-04T09:19:49.280Z,12.60
2019-04-04T09:22:24.105Z,13.10
2019-04-04T09:24:54.945Z,13.40
2019-04-04T09:27:25.731Z,13.40
2019-04-04T09:29:55.372Z,13.50
2019-04-04T09:32:28.218Z,13.50
2019-04-04T09:34:57.777Z,13.20
2019-04-04T09:37:27.428Z,12.50
2019-04-04T09:39:58.114Z,11.90
2019-04-04T09:42:27.735Z,11.20
2019-04-04T09:44:57.408Z,11.70
2019-04-04T09:47:29.704Z,11.60
2019-04-04T09:49:59.368Z,12.50
2019-04-04T09:52:31.221Z,12.40
2019-04-04T09:55:00.859Z,12.20
2019-04-04T09:57:30.435Z,12.20
2019-04-04T10:00:01.215Z,12.70
2019-04-04T10:02:33.221Z,12.10
2019-04-04T10:05:06.104Z,11.40
2019-04-04T10:07:35.905Z,11.80
2019-04-04T10:10:06.811Z,12.20
2019-04-04T10:12:38.933Z,12.20
2019-04-04T10:15:10.561Z,12.10
2019-04-04T10:17:40.129Z,12.40
2019-04-04T10:20:10.012Z,12.60
2019-04-04T10:22:41.554Z,12.20
2019-04-04T10:25:11.332Z,11.30
2019-04-04T10:27:42.412Z,11.60
2019-04-04T10:30:13.339Z,11.40
2019-04-04T10:32:44.902Z,11.50
2019-04-04T10:35:14.636Z,11.50
2019-04-04T10:37:46.055Z,10.90
2019-04-04T10:40:16.227Z,11.00
2019-04-04T10:42:47.411Z,10.60
2019-04-04T10:45:17.676Z,11.90
2019-04-04T10:47:48.783Z,11.70
2019-04-04T10:50:18.426Z,11.20
2019-04-04T10:52:49.087Z,11.60
2019-04-04T10:55:18.772Z,11.60
2019-04-04T10:57:48.464Z,11.50
2019-04-04T11:00:21.229Z,12.20
2019-04-04T11:02:52.253Z,11.70
2019-04-04T11:05:23.860Z,11.20
2019-04-04T11:07:56.603Z,11.30
2019-04-04T11:10:25.797Z,11.00
2019-04-04T11:12:56.540Z,11.70
2019-04-04T11:15:26.212Z,11.80
2019-04-04T11:17:57.784Z,11.60
2019-04-04T11:20:27.376Z,12.00
2019-04-04T11:22:58.339Z,12.20
2019-04-04T11:25:31.101Z,11.90
2019-04-04T11:28:01.200Z,11.60
2019-04-04T11:30:30.986Z,12.10
2019-04-04T11:33:00.551Z,11.80
2019-04-04T11:35:30.368Z,12.00
2019-04-04T11:38:01.198Z,12.30
2019-04-04T11:40:30.767Z,12.50
2019-04-04T11:43:00.655Z,11.90
2019-04-04T11:45:30.212Z,12.00
2019-04-04T11:48:00.052Z,12.20
2019-04-04T11:50:29.771Z,12.20
2019-04-04T11:53:01.133Z,12.50
2019-04-04T11:55:32.097Z,12.30
2019-04-04T11:58:03.172Z,11.90
2019-04-04T12:00:35.061Z,12.30
2019-04-04T12:03:04.848Z,12.20
2019-04-04T12:05:37.605Z,12.50
2019-04-04T12:08:08.260Z,12.80
2019-04-04T12:10:38.109Z,12.60
2019-04-04T12:13:07.695Z,12.20
2019-04-04T12:15:38.504Z,12.90
2019-04-04T12:18:08.572Z,12.60
2019-04-04T12:20:43.508Z,12.70
2019-04-04T12:23:15.112Z,13.00
2019-04-04T12:25:46.809Z,12.90
2019-04-04T12:28:19.230Z,12.90
2019-04-04T12:30:50.897Z,13.10
2019-04-04T12:33:22.332Z,12.70
2019-04-04T12:35:52.685Z,12.40
2019-04-04T12:38:23.681Z,12.90
2019-04-04T12:40:55.021Z,13.20
2019-04-04T12:43:26.780Z,13.30
2019-04-04T12:45:58.201Z,12.90
2019-04-04T12:48:28.110Z,12.90
2019-04-04T12:50:59.805Z,12.50
2019-04-04T12:53:29.348Z,12.90
2019-04-04T12:56:02.193Z,12.90
2019-04-04T12:58:32.050Z,12.20
2019-04-04T13:01:03.499Z,12.10
2019-04-04T13:03:33.604Z,11.90
2019-04-04T13:06:03.249Z,11.00
2019-04-04T13:08:34.053Z,11.40
2019-04-04T13:11:04.117Z,11.50
2019-04-04T13:13:38.098Z,11.60
2019-04-04T13:16:09.461Z,12.20
2019-04-04T13:18:39.145Z,12.20
2019-04-04T13:21:08.856Z,12.10
2019-04-04T13:23:39.997Z,12.00
2019-04-04T13:26:09.781Z,11.00
2019-04-04T13:28:40.659Z,11.40
2019-04-04T13:31:12.640Z,10.50
2019-04-04T13:33:44.560Z,10.40
2019-04-04T13:36:14.242Z,10.70
2019-04-04T13:38:45.620Z,11.30
2019-04-04T13:41:22.314Z,11.70
2019-04-04T13:43:49.439Z,11.60
2019-04-04T13:46:24.637Z,11.40
2019-04-04T13:48:54.665Z,11.70
2019-04-04T13:51:25.616Z,12.00
2019-04-04T13:53:55.426Z,12.40
2019-04-04T13:56:25.113Z,12.60
2019-04-04T13:58:55.683Z,12.80
2019-04-04T14:01:25.552Z,12.90
2019-04-04T14:03:57.925Z,12.90
2019-04-04T14:06:27.507Z,13.00
2019-04-04T14:08:59.480Z,13.10
2019-04-04T14:11:29.688Z,13.20
2019-04-04T14:13:59.783Z,12.60
2019-04-04T14:16:31.371Z,12.60
2019-04-04T14:19:02.773Z,13.00
2019-04-04T14:21:34.270Z,13.20
2019-04-04T14:24:12.885Z,13.10
2019-04-04T14:26:37.052Z,13.10
2019-04-04T14:29:06.602Z,13.20
2019-04-04T14:31:36.254Z,12.60
2019-04-04T14:34:05.834Z,12.00
2019-04-04T14:36:35.604Z,12.20
2019-04-04T14:39:07.113Z,12.50
2019-04-04T14:41:36.825Z,12.40
2019-04-04T14:44:09.872Z,12.70
2019-04-04T14:46:41.272Z,13.00
2019-04-04T14:49:14.201Z,12.80
2019-04-04T14:51:42.184Z,12.40
2019-04-04T14:54:13.596Z,12.00
2019-04-04T14:56:43.169Z,12.70
2019-04-04T14:59:12.774Z,13.00
2019-04-04T15:01:42.308Z,13.10
2019-04-04T15:04:13.448Z,13.20
2019-04-04T15:06:45.736Z,12.90
2019-04-04T15:09:15.594Z,12.40
2019-04-04T15:11:47.009Z,12.80
2019-04-04T15:14:19.556Z,12.80
2019-04-04T15:16:50.348Z,12.70
2019-04-04T15:19:20.640Z,12.90
2019-04-04T15:21:51.832Z,13.10
2019-04-04T15:24:23.004Z,13.10
2019-04-04T15:26:54.458Z,12.90
2019-04-04T15:29:24.281Z,12.90
2019-04-04T15:31:53.951Z,12.90
2019-04-04T15:34:23.689Z,13.20
2019-04-04T15:36:54.396Z,13.40
2019-04-04T15:39:25.666Z,12.90
2019-04-04T15:41:57.083Z,11.90
2019-04-04T15:44:28.420Z,12.20
2019-04-04T15:46:57.957Z,12.20
2019-04-04T15:49:29.370Z,12.30
2019-04-04T15:51:59.719Z,12.40
2019-04-04T15:54:31.668Z,12.90
2019-04-04T15:57:03.529Z,12.80
2019-04-04T15:59:33.268Z,12.70
2019-04-04T16:02:03.020Z,13.00
2019-04-04T16:04:32.809Z,12.60
2019-04-04T16:07:05.291Z,12.80
2019-04-04T16:09:34.876Z,12.30
2019-04-04T16:12:04.552Z,12.00
2019-04-04T16:14:37.776Z,12.10
2019-04-04T16:17:08.859Z,12.50
2019-04-04T16:19:39.040Z,12.80
2019-04-04T16:22:10.466Z,12.80
2019-04-04T16:24:41.190Z,13.00
2019-04-04T16:27:11.904Z,12.70
2019-04-04T16:29:44.243Z,12.80
2019-04-04T16:32:13.954Z,12.90
2019-04-04T16:34:45.496Z,13.20
2019-04-04T16:37:16.533Z,13.00
2019-04-04T16:39:49.546Z,12.70
2019-04-04T16:42:22.866Z,12.70
2019-04-04T16:44:52.716Z,12.90
2019-04-04T16:47:22.406Z,12.90
2019-04-04T16:49:53.880Z,13.00
2019-04-04T16:52:24.677Z,13.30
2019-04-04T16:54:55.737Z,13.40
2019-04-04T16:57:25.320Z,13.70
2019-04-04T16:59:55.289Z,13.60
2019-04-04T17:02:25.048Z,13.60
2019-04-04T17:04:54.688Z,13.70
2019-04-04T17:07:24.590Z,13.70
2019-04-04T17:09:54.172Z,13.50
2019-04-04T17:12:25.641Z,13.20
2019-04-04T17:14:55.257Z,13.30
2019-04-04T17:17:25.340Z,13.50
2019-04-04T17:19:54.884Z,13.50
2019-04-04T17:22:24.936Z,13.40
2019-04-04T17:24:54.828Z,13.40
2019-04-04T17:27:24.478Z,13.50
2019-04-04T17:29:54.558Z,13.60
2019-04-04T17:32:24.610Z,13.60
2019-04-04T17:34:54.823Z,13.60
2019-04-04T17:37:25.903Z,13.60
2019-04-04T17:39:56.875Z,13.60
2019-04-04T17:42:31.423Z,13.60
2019-04-04T17:45:02.099Z,13.00
2019-04-04T17:47:31.734Z,12.70
2019-04-04T17:50:01.769Z,13.10
2019-04-04T17:52:33.138Z,13.10
2019-04-04T17:55:02.892Z,13.30
2019-04-04T17:57:34.012Z,13.30
2019-04-04T18:00:04.276Z,13.40
2019-04-04T18:02:35.177Z,13.40
2019-04-04T18:05:05.484Z,13.30
2019-04-04T18:07:35.057Z,13.40
2019-04-04T18:10:06.244Z,13.40
2019-04-04T18:12:40.486Z,13.40
2019-04-04T18:15:08.107Z,13.50
2019-04-04T18:17:38.876Z,13.50
2019-04-04T18:20:10.036Z,13.50
2019-04-04T18:22:40.738Z,13.50
2019-04-04T18:25:10.402Z,13.40
2019-04-04T18:27:42.533Z,13.40
2019-04-04T18:30:11.870Z,13.30
2019-04-04T18:32:41.492Z,13.20
2019-04-04T18:35:11.703Z,13.20
2019-04-04T18:37:43.756Z,13.20
2019-04-04T18:40:13.564Z,13.10
2019-04-04T18:42:52.498Z,13.10
2019-04-04T18:45:14.940Z,13.10
2019-04-04T18:47:44.661Z,13.10
2019-04-04T18:50:15.863Z,13.10
2019-04-04T18:52:46.582Z,13.20
2019-04-04T18:55:20.169Z,13.30
2019-04-04T18:57:48.961Z,13.30
2019-04-04T19:00:19.103Z,13.30
2019-04-04T19:02:48.789Z,13.30
2019-04-04T19:05:19.892Z,13.30
2019-04-04T19:07:49.737Z,13.30
2019-04-04T19:10:19.796Z,13.30
2019-04-04T19:12:51.510Z,13.20
2019-04-04T19:15:21.515Z,13.10
2019-04-04T19:17:51.140Z,13.10
2019-04-04T19:20:21.023Z,13.20
2019-04-04T19:22:51.853Z,13.20
2019-04-04T19:25:23.536Z,13.20
2019-04-04T19:27:53.149Z,13.10
2019-04-04T19:30:22.782Z,13.20
2019-04-04T19:32:56.073Z,13.10
2019-04-04T19:35:28.333Z,13.20
2019-04-04T19:38:00.257Z,13.20
2019-04-04T19:40:29.573Z,13.30
2019-04-04T19:42:59.749Z,13.30
2019-04-04T19:45:30.640Z,13.20
2019-04-04T19:48:02.629Z,13.20
2019-04-04T19:50:32.213Z,13.20
2019-04-04T19:53:03.368Z,13.20
2019-04-04T19:55:34.047Z,13.20
2019-04-04T19:58:05.428Z,13.20
2019-04-04T20:00:36.240Z,13.20
2019-04-04T20:03:06.069Z,13.00
2019-04-04T20:05:38.294Z,13.00
2019-04-04T20:08:09.309Z,13.10
2019-04-04T20:10:40.204Z,13.20
2019-04-04T20:13:09.888Z,13.20
2019-04-04T20:15:39.563Z,13.20
2019-04-04T20:18:09.144Z,13.20
2019-04-04T20:20:39.344Z,13.20
2019-04-04T20:23:09.872Z,13.20
2019-04-04T20:25:39.436Z,13.20
2019-04-04T20:30:50.215Z,13.10
2019-04-04T20:33:20.885Z,13.10
2019-04-04T20:35:50.766Z,13.20
2019-04-04T20:38:20.370Z,13.10
2019-04-04T20:40:51.888Z,13.10
2019-04-04T20:43:21.497Z,13.10
2019-04-04T20:45:51.124Z,13.10
2019-04-04T20:48:20.661Z,13.00
2019-04-04T20:50:52.061Z,13.00
2019-04-04T20:53:24.591Z,13.10
2019-04-04T20:55:54.281Z,13.10
2019-04-04T20:58:23.922Z,13.10
2019-04-04T21:00:57.125Z,13.20
2019-04-04T21:03:26.749Z,13.10
2019-04-04T21:05:56.347Z,13.10
2019-04-04T21:08:25.944Z,13.10
2019-04-04T21:10:55.527Z,13.10
2019-04-04T21:13:28.033Z,13.10
2019-04-04T21:15:57.638Z,13.10
2019-04-04T21:18:27.324Z,13.10
2019-04-04T21:20:56.995Z,13.10
2019-04-04T21:23:26.672Z,13.10
2019-04-04T21:25:58.159Z,13.10
2019-04-04T21:28:29.256Z,13.10
2019-04-04T21:31:00.707Z,13.10
2019-04-04T21:33:30.361Z,12.90
2019-04-04T21:36:01.234Z,13.10
2019-04-04T21:38:30.814Z,13.10
2019-04-04T21:41:00.499Z,13.10
2019-04-04T21:43:30.084Z,13.00
2019-04-04T21:45:59.720Z,13.10
2019-04-04T21:48:29.443Z,13.00
2019-04-04T21:51:00.256Z,13.00
2019-04-04T21:53:30.273Z,13.10
2019-04-04T21:56:02.745Z,13.00
2019-04-04T21:58:32.308Z,13.00
2019-04-04T22:01:05.240Z,13.10
2019-04-04T22:03:37.697Z,13.10
2019-04-04T22:06:07.473Z,13.10
2019-04-04T22:08:38.125Z,12.80
2019-04-04T22:11:08.075Z,12.90
2019-04-04T22:13:39.300Z,12.90
2019-04-04T22:16:08.881Z,12.80
2019-04-04T22:18:38.903Z,12.80
2019-04-04T22:21:11.226Z,12.60
2019-04-04T22:23:43.752Z,12.60
2019-04-04T22:26:14.445Z,12.80
2019-04-04T22:28:44.180Z,12.90
2019-04-04T22:31:14.769Z,12.80
2019-04-04T22:33:44.360Z,12.80
2019-04-04T22:36:15.264Z,12.80
2019-04-04T22:38:44.807Z,12.80
2019-04-04T22:41:15.537Z,12.70
2019-04-04T22:43:45.176Z,12.50
2019-04-04T22:46:15.905Z,12.60
2019-04-04T22:48:46.680Z,12.40
2019-04-04T22:51:19.428Z,12.50
2019-04-04T22:53:49.272Z,12.50
2019-04-04T22:56:19.025Z,12.40
2019-04-04T22:58:48.688Z,12.30
2019-04-04T23:01:18.432Z,12.20
2019-04-04T23:03:50.576Z,12.10
2019-04-04T23:06:20.248Z,12.30
2019-04-04T23:08:50.293Z,12.40
2019-04-04T23:11:19.876Z,12.50
2019-04-04T23:13:52.816Z,12.60
2019-04-04T23:16:23.652Z,12.70
2019-04-04T23:18:55.687Z,12.80
2019-04-04T23:21:27.067Z,12.80
2019-04-04T23:23:58.060Z,12.80
2019-04-04T23:26:27.717Z,12.80
2019-04-04T23:28:57.288Z,12.60
2019-04-04T23:31:28.596Z,12.50
2019-04-04T23:33:59.925Z,12.60
2019-04-04T23:36:35.085Z,12.50
2019-04-04T23:39:03.136Z,12.60
2019-04-04T23:41:33.211Z,12.50
2019-04-04T23:44:03.472Z,12.50
2019-04-04T23:46:34.204Z,12.60
2019-04-04T23:49:05.133Z,12.60
2019-04-04T23:51:34.855Z,12.40
2019-04-04T23:54:08.135Z,12.50
2019-04-04T23:56:38.349Z,12.50
2019-04-04T23:59:11.304Z,12.60
